createdAt,value
2023-03-05T00:02:13.807Z,89.08984
2023-03-05T00:07:14.070Z,89.33008
2023-03-05T00:12:14.115Z,89.16211
2023-03-05T00:17:13.827Z,89.46973
2023-03-05T00:22:13.696Z,89.2168
2023-03-05T00:27:14.846Z,89.11914
2023-03-05T00:32:13.688Z,89.05957
2023-03-05T00:37:14.265Z,88.99805
2023-03-05T00:42:14.054Z,89.3457
2023-03-05T00:47:14.042Z,89.3584
2023-03-05T00:52:13.879Z,89.15918
2023-03-05T00:57:13.666Z,89.17188
2023-03-05T01:02:14.396Z,88.95508
2023-03-05T01:07:13.669Z,89.11328
2023-03-05T01:12:13.874Z,89.25684
2023-03-05T01:17:13.652Z,88.81641
2023-03-05T01:22:13.676Z,89.2041
2023-03-05T01:27:13.776Z,88.85059
2023-03-05T01:32:13.703Z,89.03125
2023-03-05T01:37:13.741Z,89.18652
2023-03-05T01:42:13.748Z,88.84863
2023-03-05T01:47:13.758Z,89
2023-03-05T01:52:17.513Z,89.28125
2023-03-05T01:57:16.314Z,89.08301
2023-03-05T02:02:14.240Z,89.12695
2023-03-05T02:07:15.094Z,89.33301
2023-03-05T02:12:15.523Z,89.92383
2023-03-05T02:17:14.216Z,89.58105
2023-03-05T02:22:17.999Z,89.24121
2023-03-05T02:27:13.683Z,89.2793
2023-03-05T02:32:13.912Z,89.38379
2023-03-05T02:37:13.775Z,89.3252
2023-03-05T02:42:13.776Z,89.37207
2023-03-05T02:47:13.791Z,89.23535
2023-03-05T02:52:13.849Z,89.01855
2023-03-05T02:57:13.645Z,89.20996
2023-03-05T03:02:13.768Z,89.01074
2023-03-05T03:07:13.859Z,89.13379
2023-03-05T03:12:13.852Z,88.97266
2023-03-05T03:17:14.625Z,89.24121
2023-03-05T03:22:14.444Z,89.24609
2023-03-05T03:27:14.332Z,89.46973
2023-03-05T03:32:13.854Z,89.0918
2023-03-05T03:37:13.839Z,89.36816
2023-03-05T03:42:14.316Z,89.12988
2023-03-05T03:47:13.731Z,89.64355
2023-03-05T03:52:13.737Z,89.44727
2023-03-05T03:57:13.729Z,89.62695
2023-03-05T04:02:13.766Z,89.2373
2023-03-05T04:07:13.815Z,89.39844
2023-03-05T04:12:17.883Z,88.97461
2023-03-05T04:17:13.900Z,89.31543
2023-03-05T04:22:14.507Z,89.125
2023-03-05T04:27:13.994Z,89.25977
2023-03-05T04:32:13.759Z,89.1543
2023-03-05T04:37:13.639Z,89.16504
2023-03-05T04:42:14.282Z,89.05859
2023-03-05T04:47:13.603Z,88.90723
2023-03-05T04:52:14.342Z,88.74512
2023-03-05T04:57:13.902Z,89.1123
2023-03-05T05:02:13.686Z,88.9541
2023-03-05T05:07:13.532Z,88.99707
2023-03-05T05:12:14.124Z,88.62598
2023-03-05T05:17:13.648Z,88.90723
2023-03-05T05:22:13.556Z,89.19531
2023-03-05T05:27:13.712Z,88.94434
2023-03-05T05:32:13.729Z,88.96973
2023-03-05T05:37:13.562Z,89.02539
2023-03-05T05:42:13.776Z,89.2002
2023-03-05T05:47:13.741Z,89.08105
2023-03-05T05:52:13.624Z,89.18945
2023-03-05T05:57:13.795Z,89.23242
2023-03-05T06:02:14.267Z,89.02148
2023-03-05T06:07:13.707Z,88.9834
2023-03-05T06:12:13.963Z,89.06055
2023-03-05T06:17:21.837Z,89.19434
2023-03-05T06:22:13.609Z,89.02148
2023-03-05T06:27:13.658Z,89.05371
2023-03-05T06:32:13.719Z,89.07031
2023-03-05T06:37:13.573Z,89.02539
2023-03-05T06:42:13.812Z,88.77246
2023-03-05T06:47:14.393Z,88.98242
2023-03-05T06:52:13.793Z,88.89063
2023-03-05T06:57:14.259Z,88.78418
2023-03-05T07:02:14.539Z,88.67969
2023-03-05T07:07:13.669Z,88.76465
2023-03-05T07:12:13.997Z,88.82324
2023-03-05T07:17:15.092Z,88.66797
2023-03-05T07:22:14.476Z,88.62695
2023-03-05T07:27:13.648Z,88.60742
2023-03-05T07:32:14.939Z,88.5
2023-03-05T07:37:13.877Z,88.76953
2023-03-05T07:42:13.658Z,88.62402
2023-03-05T07:47:13.668Z,88.3457
2023-03-05T07:52:13.857Z,87.88086
2023-03-05T07:57:14.763Z,87.57715
2023-03-05T08:02:13.946Z,87.34082
2023-03-05T08:07:13.665Z,87.08301
2023-03-05T08:12:13.847Z,86.84473
2023-03-05T08:17:13.516Z,87.04785
2023-03-05T08:22:16.147Z,86.23828
2023-03-05T08:27:13.551Z,86.09668
2023-03-05T08:32:13.632Z,86.14063
2023-03-05T08:37:13.729Z,85.7832
2023-03-05T08:42:13.741Z,85.77344
2023-03-05T08:47:13.504Z,85.19531
2023-03-05T08:52:13.676Z,84.52246
2023-03-05T08:57:13.444Z,84.02246
2023-03-05T09:02:13.891Z,83.49609
2023-03-05T09:07:13.466Z,82.8623
2023-03-05T09:12:15.689Z,82.92578
2023-03-05T09:17:13.501Z,82.7041
2023-03-05T09:22:13.729Z,83.21289
2023-03-05T09:27:13.690Z,83.28125
2023-03-05T09:32:14.026Z,82.20508
2023-03-05T09:37:13.553Z,80.61719
2023-03-05T09:42:30.483Z,79.12891
2023-03-05T09:47:23.559Z,78.31738
2023-03-05T09:52:19.091Z,77.96484
2023-03-05T09:57:18.213Z,78.63574
2023-03-05T10:02:16.892Z,78.92188
2023-03-05T10:07:17.273Z,77.6543
2023-03-05T10:12:19.433Z,77.06641
2023-03-05T10:17:24.792Z,77.18945
2023-03-05T10:22:18.512Z,77.16504
2023-03-05T10:27:18.414Z,77.45313
2023-03-05T10:32:20.125Z,76.6875
2023-03-05T10:37:19.136Z,75.97168
2023-03-05T10:42:16.687Z,75.79688
2023-03-05T10:47:18.811Z,75.00879
2023-03-05T10:52:18.692Z,74.73633
2023-03-05T10:57:20.028Z,75.63867
2023-03-05T11:02:13.687Z,76.40723
2023-03-05T11:07:25.924Z,75.80078
2023-03-05T11:12:21.070Z,76.50391
2023-03-05T11:17:24.545Z,76.54004
2023-03-05T11:22:20.263Z,77.12012
2023-03-05T11:27:24.616Z,77.27539
2023-03-05T11:32:25.122Z,77.3418
2023-03-05T11:37:22.971Z,77.61523
2023-03-05T11:42:15.535Z,77.40137
2023-03-05T11:47:20.623Z,77.57031
2023-03-05T11:52:16.949Z,77.5957
2023-03-05T11:57:16.575Z,77.27148
2023-03-05T12:02:19.741Z,77.08594
2023-03-05T12:07:16.985Z,77.45508
2023-03-05T12:12:20.990Z,77.96875
2023-03-05T12:17:17.768Z,77.59375
2023-03-05T12:22:19.564Z,78.20313
2023-03-05T12:27:23.175Z,78.81055
2023-03-05T12:32:28.397Z,77.21191
2023-03-05T12:37:14.218Z,77.86426
2023-03-05T12:42:24.581Z,77.09277
2023-03-05T12:47:23.350Z,77.51172
2023-03-05T12:52:20.538Z,77.86914
2023-03-05T12:57:18.978Z,77.74805
2023-03-05T13:02:18.636Z,77.22461
2023-03-05T13:07:18.204Z,76.5957
2023-03-05T13:12:16.126Z,76.24902
2023-03-05T13:17:24.362Z,75.45996
2023-03-05T13:22:16.958Z,74.90137
2023-03-05T13:27:26.560Z,74.4082
2023-03-05T13:32:26.000Z,74.69043
2023-03-05T13:37:20.091Z,75.0332
2023-03-05T13:42:19.986Z,74.73633
2023-03-05T13:47:20.003Z,75.49023
2023-03-05T13:52:15.870Z,76.0625
2023-03-05T13:57:25.847Z,76.39063
2023-03-05T14:02:21.144Z,77.19922
2023-03-05T14:07:26.695Z,78.02637
2023-03-05T14:12:27.418Z,79.86914
2023-03-05T14:17:41.518Z,80.20605
2023-03-05T14:22:24.494Z,80.25195
2023-03-05T14:32:22.210Z,79.81738
2023-03-05T14:37:22.077Z,80.7666
2023-03-05T14:42:24.815Z,81.06348
2023-03-05T14:47:13.479Z,81.41016
2023-03-05T14:52:14.558Z,82.75488
2023-03-05T14:57:18.322Z,80.2002
2023-03-05T15:02:19.943Z,80.99219
2023-03-05T15:07:14.804Z,79.03906
2023-03-05T15:12:16.828Z,79.47363
2023-03-05T15:17:14.275Z,79.68945
2023-03-05T15:22:13.998Z,79.36133
2023-03-05T15:27:14.362Z,78.7373
2023-03-05T15:32:13.551Z,81.25586
2023-03-05T15:37:13.389Z,80.89746
2023-03-05T15:42:13.650Z,81.02344
2023-03-05T15:47:13.725Z,81.98535
2023-03-05T15:52:14.016Z,81.9668
2023-03-05T15:57:14.618Z,82.51074
2023-03-05T16:02:13.492Z,82.16016
2023-03-05T16:07:13.860Z,81.80957
2023-03-05T16:12:17.703Z,81.9375
2023-03-05T16:17:13.569Z,82.06934
2023-03-05T16:22:13.556Z,81.86035
2023-03-05T16:27:13.857Z,82.11621
2023-03-05T16:32:14.192Z,82.41309
2023-03-05T16:37:13.454Z,82.83496
2023-03-05T16:42:13.680Z,82.92383
2023-03-05T16:47:14.040Z,83.02148
2023-03-05T16:52:18.833Z,83.22754
2023-03-05T16:57:13.403Z,83.40039
2023-03-05T17:02:15.002Z,84.06543
2023-03-05T17:07:13.571Z,84.28223
2023-03-05T17:12:14.393Z,84.11816
2023-03-05T17:17:13.877Z,84.00098
2023-03-05T17:22:15.878Z,84.01367
2023-03-05T17:27:14.095Z,84.36523
2023-03-05T17:32:13.589Z,84.9082
2023-03-05T17:37:13.482Z,85.20215
2023-03-05T17:42:15.519Z,85.27148
2023-03-05T17:47:13.527Z,85.16602
2023-03-05T17:52:13.416Z,85.19238
2023-03-05T17:57:13.386Z,84.60059
2023-03-05T18:02:13.461Z,84.54883
2023-03-05T18:07:13.534Z,84.90918
2023-03-05T18:12:13.413Z,84.71094
2023-03-05T18:17:13.698Z,84.79492
2023-03-05T18:22:13.377Z,84.73828
2023-03-05T18:27:13.774Z,84.54785
2023-03-05T18:32:14.687Z,85.01953
2023-03-05T18:37:13.488Z,85.02637
2023-03-05T18:42:14.445Z,85.25391
2023-03-05T18:47:13.329Z,85.16699
2023-03-05T18:52:27.438Z,85.3418
2023-03-05T18:57:13.302Z,85.30859
2023-03-05T19:02:16.477Z,85.70898
2023-03-05T19:07:13.509Z,85.81348
2023-03-05T19:12:13.397Z,85.64551
2023-03-05T19:17:13.322Z,85.83203
2023-03-05T19:22:14.110Z,85.6748
2023-03-05T19:27:16.379Z,85.7832
2023-03-05T19:32:15.481Z,85.52344
2023-03-05T19:37:13.266Z,85.88672
2023-03-05T19:42:13.749Z,86.05859
2023-03-05T19:47:13.480Z,86.19336
2023-03-05T19:52:13.746Z,86.38379
2023-03-05T19:57:13.349Z,86.01563
2023-03-05T20:02:13.970Z,86.02441
2023-03-05T20:07:16.282Z,85.86133
2023-03-05T20:12:13.746Z,86.47949
2023-03-05T20:17:13.503Z,86.10742
2023-03-05T20:22:13.280Z,86.07129
2023-03-05T20:27:13.374Z,86.30566
2023-03-05T20:32:14.792Z,86.24512
2023-03-05T20:37:13.271Z,86.45215
2023-03-05T20:42:13.372Z,86.22949
2023-03-05T20:47:40.615Z,86.51855
2023-03-05T20:52:13.397Z,86.40527
2023-03-05T20:57:13.269Z,86.64551
2023-03-05T21:02:13.748Z,86.56445
2023-03-05T21:07:13.316Z,86.38672
2023-03-05T21:12:13.587Z,87.01855
2023-03-05T21:17:13.352Z,86.54395
2023-03-05T21:22:13.429Z,86.55371
2023-03-05T21:27:13.304Z,86.77734
2023-03-05T21:32:13.300Z,86.55664
2023-03-05T21:37:13.279Z,86.51465
2023-03-05T21:42:13.984Z,86.70996
2023-03-05T21:47:13.254Z,86.9375
2023-03-05T21:52:14.916Z,86.8418
2023-03-05T21:57:14.840Z,87.17969
2023-03-05T22:02:13.582Z,86.94629
2023-03-05T22:07:13.473Z,86.92383
2023-03-05T22:12:48.089Z,86.89258
2023-03-05T22:17:13.269Z,87.33301
2023-03-05T22:22:13.593Z,87.10059
2023-03-05T22:27:13.255Z,87.61523
2023-03-05T22:32:13.552Z,87.41211
2023-03-05T22:37:13.356Z,86.89941
2023-03-05T22:42:13.486Z,87.36914
2023-03-05T22:47:13.485Z,87.49121
2023-03-05T22:52:13.580Z,87.36426
2023-03-05T22:57:13.910Z,87.50586
2023-03-05T23:02:13.372Z,87.36621
2023-03-05T23:07:13.532Z,87.4043
2023-03-05T23:12:13.717Z,87.36621
2023-03-05T23:17:13.337Z,87.78418
2023-03-05T23:22:14.351Z,87.45508
2023-03-05T23:27:14.615Z,87.57227
2023-03-05T23:32:13.651Z,87.99121
2023-03-05T23:37:13.312Z,87.83008
2023-03-05T23:42:13.483Z,87.42188
2023-03-05T23:47:13.590Z,87.60938
2023-03-05T23:52:13.351Z,87.42969
2023-03-05T23:57:13.388Z,87.86719
